sensor_id;sensor_type;location;lat;lon;timestamp;pressure;altitude;pressure_sealevel;temperature;humidity
29315;BME280;16320;53.954;9.506;2023-08-17T00:02:49;102193.28;;;14.96;100.00
29315;BME280;16320;53.954;9.506;2023-08-17T00:05:54;102191.44;;;14.98;100.00
29315;BME280;16320;53.954;9.506;2023-08-17T00:08:59;102197.72;;;14.95;100.00
29315;BME280;16320;53.954;9.506;2023-08-17T00:12:04;102195.72;;;15.00;100.00
29315;BME280;16320;53.954;9.506;2023-08-17T00:15:10;102202.66;;;15.03;100.00
29315;BME280;16320;53.954;9.506;2023-08-17T00:18:14;102193.63;;;15.07;100.00
29315;BME280;16320;53.954;9.506;2023-08-17T00:21:19;102199.88;;;15.06;100.00
29315;BME280;16320;53.954;9.506;2023-08-17T00:24:23;102200.59;;;15.10;100.00
29315;BME280;16320;53.954;9.506;2023-08-17T00:27:28;102213.91;;;15.08;100.00
29315;BME280;16320;53.954;9.506;2023-08-17T00:30:33;102210.47;;;15.06;100.00
29315;BME280;16320;53.954;9.506;2023-08-17T00:33:40;102200.31;;;14.97;100.00
29315;BME280;16320;53.954;9.506;2023-08-17T00:36:45;102210.25;;;14.92;100.00
29315;BME280;16320;53.954;9.506;2023-08-17T00:39:49;102210.47;;;14.87;100.00
29315;BME280;16320;53.954;9.506;2023-08-17T00:42:53;102206.78;;;14.90;100.00
29315;BME280;16320;53.954;9.506;2023-08-17T00:45:59;102204.97;;;14.92;100.00
29315;BME280;16320;53.954;9.506;2023-08-17T00:49:04;102200.72;;;14.88;100.00
29315;BME280;16320;53.954;9.506;2023-08-17T00:52:09;102198.22;;;14.85;100.00
29315;BME280;16320;53.954;9.506;2023-08-17T00:55:14;102206.97;;;14.87;100.00
29315;BME280;16320;53.954;9.506;2023-08-17T00:58:20;102217.53;;;14.87;100.00
29315;BME280;16320;53.954;9.506;2023-08-17T01:01:25;102215.81;;;14.86;100.00
29315;BME280;16320;53.954;9.506;2023-08-17T01:04:31;102217.38;;;14.90;100.00
29315;BME280;16320;53.954;9.506;2023-08-17T01:07:36;102206.66;;;14.93;100.00
29315;BME280;16320;53.954;9.506;2023-08-17T01:11:00;102209.16;;;14.96;100.00
29315;BME280;16320;53.954;9.506;2023-08-17T01:17:33;102205.66;;;14.95;100.00
29315;BME280;16320;53.954;9.506;2023-08-17T01:20:38;102205.38;;;15.01;100.00
29315;BME280;16320;53.954;9.506;2023-08-17T01:23:48;102211.66;;;14.99;100.00
29315;BME280;16320;53.954;9.506;2023-08-17T01:26:53;102216.53;;;15.08;100.00
29315;BME280;16320;53.954;9.506;2023-08-17T01:29:58;102219.03;;;15.11;100.00
29315;BME280;16320;53.954;9.506;2023-08-17T01:33:10;102211.75;;;15.16;100.00
29315;BME280;16320;53.954;9.506;2023-08-17T01:36:25;102209.25;;;15.13;100.00
29315;BME280;16320;53.954;9.506;2023-08-17T01:39:39;102223.09;;;15.18;100.00
29315;BME280;16320;53.954;9.506;2023-08-17T01:42:44;102207.38;;;15.15;100.00
29315;BME280;16320;53.954;9.506;2023-08-17T01:45:48;102205.34;;;15.20;100.00
29315;BME280;16320;53.954;9.506;2023-08-17T01:48:53;102200.06;;;15.20;100.00
29315;BME280;16320;53.954;9.506;2023-08-17T01:51:59;102202.56;;;15.24;100.00
29315;BME280;16320;53.954;9.506;2023-08-17T01:55:05;102207.78;;;15.25;100.00
29315;BME280;16320;53.954;9.506;2023-08-17T01:58:09;102215.66;;;15.27;100.00
29315;BME280;16320;53.954;9.506;2023-08-17T02:01:14;102219.41;;;15.23;100.00
29315;BME280;16320;53.954;9.506;2023-08-17T02:04:18;102217.66;;;15.22;100.00
29315;BME280;16320;53.954;9.506;2023-08-17T02:07:23;102216.25;;;15.14;100.00
29315;BME280;16320;53.954;9.506;2023-08-17T02:10:28;102219.69;;;15.16;100.00
29315;BME280;16320;53.954;9.506;2023-08-17T02:13:32;102216.25;;;15.14;100.00
29315;BME280;16320;53.954;9.506;2023-08-17T02:16:36;102206.38;;;15.18;100.00
29315;BME280;16320;53.954;9.506;2023-08-17T02:19:42;102208.38;;;15.13;100.00
29315;BME280;16320;53.954;9.506;2023-08-17T02:22:48;102211.97;;;15.12;100.00
29315;BME280;16320;53.954;9.506;2023-08-17T02:25:52;102226.59;;;15.19;100.00
29315;BME280;16320;53.954;9.506;2023-08-17T02:28:56;102218.09;;;15.12;100.00
29315;BME280;16320;53.954;9.506;2023-08-17T02:32:01;102216.13;;;15.17;100.00
29315;BME280;16320;53.954;9.506;2023-08-17T02:35:06;102220.47;;;15.18;100.00
29315;BME280;16320;53.954;9.506;2023-08-17T02:38:10;102212.66;;;15.15;100.00
29315;BME280;16320;53.954;9.506;2023-08-17T02:41:15;102212.53;;;15.18;100.00
29315;BME280;16320;53.954;9.506;2023-08-17T02:44:20;102206.31;;;15.19;100.00
29315;BME280;16320;53.954;9.506;2023-08-17T02:47:25;102211.53;;;15.21;100.00
29315;BME280;16320;53.954;9.506;2023-08-17T02:50:30;102200.94;;;15.21;100.00
29315;BME280;16320;53.954;9.506;2023-08-17T02:53:34;102211.75;;;15.16;100.00
29315;BME280;16320;53.954;9.506;2023-08-17T02:56:38;102196.78;;;15.15;100.00
29315;BME280;16320;53.954;9.506;2023-08-17T02:59:43;102207.22;;;15.18;100.00
29315;BME280;16320;53.954;9.506;2023-08-17T03:02:48;102208.94;;;15.19;100.00
29315;BME280;16320;53.954;9.506;2023-08-17T03:05:52;102205.44;;;15.19;100.00
29315;BME280;16320;53.954;9.506;2023-08-17T03:08:57;102203.53;;;15.23;100.00
29315;BME280;16320;53.954;9.506;2023-08-17T03:12:01;102203.59;;;15.21;100.00
29315;BME280;16320;53.954;9.506;2023-08-17T03:15:06;102191.34;;;15.18;100.00
29315;BME280;16320;53.954;9.506;2023-08-17T03:18:10;102200.25;;;15.17;100.00
29315;BME280;16320;53.954;9.506;2023-08-17T03:21:15;102191.50;;;15.15;100.00
29315;BME280;16320;53.954;9.506;2023-08-17T03:24:19;102198.94;;;15.07;100.00
29315;BME280;16320;53.954;9.506;2023-08-17T03:27:23;102198.09;;;15.07;100.00
29315;BME280;16320;53.954;9.506;2023-08-17T03:30:30;102202.66;;;15.03;100.00
29315;BME280;16320;53.954;9.506;2023-08-17T03:33:35;102204.22;;;15.07;100.00
29315;BME280;16320;53.954;9.506;2023-08-17T03:36:39;102208.81;;;15.04;100.00
29315;BME280;16320;53.954;9.506;2023-08-17T03:39:44;102209.53;;;15.07;100.00
29315;BME280;16320;53.954;9.506;2023-08-17T03:42:48;102204.28;;;15.06;100.00
29315;BME280;16320;53.954;9.506;2023-08-17T03:45:53;102206.22;;;15.02;100.00
29315;BME280;16320;53.954;9.506;2023-08-17T03:48:58;102206.09;;;15.05;100.00
29315;BME280;16320;53.954;9.506;2023-08-17T03:52:02;102211.38;;;15.05;100.00
29315;BME280;16320;53.954;9.506;2023-08-17T03:55:07;102211.25;;;15.08;100.00
29315;BME280;16320;53.954;9.506;2023-08-17T03:58:11;102206.03;;;15.07;100.00
29315;BME280;16320;53.954;9.506;2023-08-17T04:01:17;102197.06;;;15.09;100.00
29315;BME280;16320;53.954;9.506;2023-08-17T04:04:21;102207.50;;;15.12;100.00
29315;BME280;16320;53.954;9.506;2023-08-17T04:07:25;102201.44;;;15.10;100.00
29315;BME280;16320;53.954;9.506;2023-08-17T04:10:30;102194.41;;;15.09;100.00
29315;BME280;16320;53.954;9.506;2023-08-17T04:13:34;102185.69;;;15.07;100.00
29315;BME280;16320;53.954;9.506;2023-08-17T04:16:38;102193.50;;;15.10;100.00
29315;BME280;16320;53.954;9.506;2023-08-17T04:19:43;102200.03;;;15.03;100.00
29315;BME280;16320;53.954;9.506;2023-08-17T04:22:48;102201.88;;;15.01;100.00
29315;BME280;16320;53.954;9.506;2023-08-17T04:25:54;102197.53;;;15.00;100.00
29315;BME280;16320;53.954;9.506;2023-08-17T04:28:59;102199.22;;;15.01;100.00
29315;BME280;16320;53.954;9.506;2023-08-17T04:32:04;102195.66;;;15.02;100.00
29315;BME280;16320;53.954;9.506;2023-08-17T04:35:09;102191.94;;;15.06;100.00
29315;BME280;16320;53.954;9.506;2023-08-17T04:38:15;102197.16;;;15.08;100.00
29315;BME280;16320;53.954;9.506;2023-08-17T04:41:19;102190.06;;;15.08;100.00
29315;BME280;16320;53.954;9.506;2023-08-17T04:44:24;102196.91;;;15.12;100.00
29315;BME280;16320;53.954;9.506;2023-08-17T04:47:28;102194.00;;;15.18;100.00
29315;BME280;16320;53.954;9.506;2023-08-17T04:50:32;102190.44;;;15.19;100.00
29315;BME280;16320;53.954;9.506;2023-08-17T04:53:37;102202.72;;;15.20;100.00
29315;BME280;16320;53.954;9.506;2023-08-17T04:56:42;102206.94;;;15.25;100.00
29315;BME280;16320;53.954;9.506;2023-08-17T04:59:48;102220.81;;;15.30;100.00
29315;BME280;16320;53.954;9.506;2023-08-17T05:02:52;102221.72;;;15.29;100.00
29315;BME280;16320;53.954;9.506;2023-08-17T05:05:56;102220.94;;;15.27;100.00
29315;BME280;16320;53.954;9.506;2023-08-17T05:09:01;102229.53;;;15.32;100.00
29315;BME280;16320;53.954;9.506;2023-08-17T05:12:07;102228.38;;;15.37;100.00
29315;BME280;16320;53.954;9.506;2023-08-17T05:15:12;102233.53;;;15.41;100.00
29315;BME280;16320;53.954;9.506;2023-08-17T05:18:16;102250.00;;;15.47;100.00
29315;BME280;16320;53.954;9.506;2023-08-17T05:21:20;102250.84;;;15.48;100.00
29315;BME280;16320;53.954;9.506;2023-08-17T05:24:25;102258.84;;;15.46;100.00
29315;BME280;16320;53.954;9.506;2023-08-17T05:27:29;102259.72;;;15.47;100.00
29315;BME280;16320;53.954;9.506;2023-08-17T05:30:34;102254.25;;;15.50;100.00
29315;BME280;16320;53.954;9.506;2023-08-17T05:33:39;102258.84;;;15.46;100.00
29315;BME280;16320;53.954;9.506;2023-08-17T05:36:45;102263.38;;;15.44;100.00
29315;BME280;16320;53.954;9.506;2023-08-17T05:39:49;102256.13;;;15.48;100.00
29315;BME280;16320;53.954;9.506;2023-08-17T05:42:54;102262.44;;;15.45;100.00
29315;BME280;16320;53.954;9.506;2023-08-17T05:45:58;102263.59;;;15.40;100.00
29315;BME280;16320;53.954;9.506;2023-08-17T05:49:04;102253.84;;;15.40;100.00
29315;BME280;16320;53.954;9.506;2023-08-17T05:52:09;102257.16;;;15.45;100.00
29315;BME280;16320;53.954;9.506;2023-08-17T05:55:13;102258.56;;;15.52;100.00
29315;BME280;16320;53.954;9.506;2023-08-17T05:58:17;102265.59;;;15.53;100.00
29315;BME280;16320;53.954;9.506;2023-08-17T06:01:22;102269.31;;;15.49;100.00
29315;BME280;16320;53.954;9.506;2023-08-17T06:04:26;102267.59;;;15.48;100.00
29315;BME280;16320;53.954;9.506;2023-08-17T06:07:31;102270.16;;;15.50;100.00
29315;BME280;16320;53.954;9.506;2023-08-17T06:10:35;102277.09;;;15.52;100.00
29315;BME280;16320;53.954;9.506;2023-08-17T06:13:40;102273.53;;;15.53;100.00
29315;BME280;16320;53.954;9.506;2023-08-17T06:16:44;102272.59;;;15.54;100.00
29315;BME280;16320;53.954;9.506;2023-08-17T06:19:48;102279.59;;;15.55;100.00
29315;BME280;16320;53.954;9.506;2023-08-17T06:22:53;102277.03;;;15.54;100.00
29315;BME280;16320;53.954;9.506;2023-08-17T06:25:58;102284.91;;;15.55;100.00
29315;BME280;16320;53.954;9.506;2023-08-17T06:29:03;102284.75;;;15.59;100.00
29315;BME280;16320;53.954;9.506;2023-08-17T06:32:07;102290.47;;;15.68;100.00
29315;BME280;16320;53.954;9.506;2023-08-17T06:35:12;102298.50;;;15.67;100.00
29315;BME280;16320;53.954;9.506;2023-08-17T06:38:17;102301.91;;;15.69;100.00
29315;BME280;16320;53.954;9.506;2023-08-17T06:41:21;102301.28;;;15.64;100.00
29315;BME280;16320;53.954;9.506;2023-08-17T06:44:26;102294.19;;;15.64;100.00
29315;BME280;16320;53.954;9.506;2023-08-17T06:47:30;102299.41;;;15.66;100.00
29315;BME280;16320;53.954;9.506;2023-08-17T06:50:34;102306.59;;;15.64;100.00
29315;BME280;16320;53.954;9.506;2023-08-17T06:53:39;102295.22;;;15.62;100.00
29315;BME280;16320;53.954;9.506;2023-08-17T06:56:44;102293.34;;;15.64;100.00
29315;BME280;16320;53.954;9.506;2023-08-17T06:59:48;102297.56;;;15.68;100.00
29315;BME280;16320;53.954;9.506;2023-08-17T07:02:53;102299.91;;;15.74;100.00
29315;BME280;16320;53.954;9.506;2023-08-17T07:06:01;102305.19;;;15.74;100.00
29315;BME280;16320;53.954;9.506;2023-08-17T07:09:06;102303.66;;;15.70;100.00
29315;BME280;16320;53.954;9.506;2023-08-17T07:12:10;102302.00;;;15.67;100.00
29315;BME280;16320;53.954;9.506;2023-08-17T07:15:15;102301.06;;;15.68;100.00
29315;BME280;16320;53.954;9.506;2023-08-17T07:18:19;102295.38;;;15.78;100.00
29315;BME280;16320;53.954;9.506;2023-08-17T07:21:28;102296.28;;;15.77;100.00
29315;BME280;16320;53.954;9.506;2023-08-17T07:24:32;102291.63;;;15.82;100.00
29315;BME280;16320;53.954;9.506;2023-08-17T07:27:37;102289.75;;;15.84;100.00
29315;BME280;16320;53.954;9.506;2023-08-17T07:30:41;102285.31;;;15.84;100.00
29315;BME280;16320;53.954;9.506;2023-08-17T07:33:47;102290.41;;;15.89;100.00
29315;BME280;16320;53.954;9.506;2023-08-17T07:36:51;102285.94;;;15.89;100.00
29315;BME280;16320;53.954;9.506;2023-08-17T07:39:56;102268.19;;;15.91;100.00
29315;BME280;16320;53.954;9.506;2023-08-17T07:43:00;102277.63;;;15.97;100.00
29315;BME280;16320;53.954;9.506;2023-08-17T07:46:05;102284.41;;;16.03;100.00
29315;BME280;16320;53.954;9.506;2023-08-17T07:49:10;102291.72;;;15.98;100.00
29315;BME280;16320;53.954;9.506;2023-08-17T07:52:33;102291.09;;;15.92;100.00
29315;BME280;16320;53.954;9.506;2023-08-17T07:55:37;102297.03;;;15.98;100.00
29315;BME280;16320;53.954;9.506;2023-08-17T07:58:42;102307.91;;;15.91;100.00
29315;BME280;16320;53.954;9.506;2023-08-17T08:01:46;102312.06;;;15.97;100.00
29315;BME280;16320;53.954;9.506;2023-08-17T08:04:51;102314.66;;;15.99;100.00
29315;BME280;16320;53.954;9.506;2023-08-17T08:07:55;102312.94;;;15.98;100.00
29315;BME280;16320;53.954;9.506;2023-08-17T08:10:59;102316.28;;;16.01;100.00
29315;BME280;16320;53.954;9.506;2023-08-17T08:14:04;102311.69;;;16.05;100.00
29315;BME280;16320;53.954;9.506;2023-08-17T08:17:08;102308.72;;;16.11;100.00
29315;BME280;16320;53.954;9.506;2023-08-17T08:20:13;102313.19;;;16.10;100.00
29315;BME280;16320;53.954;9.506;2023-08-17T08:23:17;102312.31;;;16.10;100.00
29315;BME280;16320;53.954;9.506;2023-08-17T08:26:22;102324.78;;;16.08;100.00
29315;BME280;16320;53.954;9.506;2023-08-17T08:29:26;102329.94;;;16.11;100.00
29315;BME280;16320;53.954;9.506;2023-08-17T08:32:31;102324.34;;;16.17;100.00
29315;BME280;16320;53.954;9.506;2023-08-17T08:35:35;102325.03;;;16.21;100.00
29315;BME280;16320;53.954;9.506;2023-08-17T08:38:39;102326.97;;;16.17;100.00
29315;BME280;16320;53.954;9.506;2023-08-17T08:41:44;102331.38;;;16.18;100.00
29315;BME280;16320;53.954;9.506;2023-08-17T08:44:49;102338.66;;;16.13;100.00
29315;BME280;16320;53.954;9.506;2023-08-17T08:47:54;102328.06;;;16.13;100.00
29315;BME280;16320;53.954;9.506;2023-08-17T08:51:01;102334.47;;;16.09;100.00
29315;BME280;16320;53.954;9.506;2023-08-17T08:54:08;102334.94;;;16.17;100.00
29315;BME280;16320;53.954;9.506;2023-08-17T08:57:17;102340.25;;;16.17;100.00
29315;BME280;16320;53.954;9.506;2023-08-17T09:00:25;102340.25;;;16.17;100.00
29315;BME280;16320;53.954;9.506;2023-08-17T09:03:31;102350.69;;;16.20;100.00
29315;BME280;16320;53.954;9.506;2023-08-17T09:06:38;102357.69;;;16.21;100.00
29315;BME280;16320;53.954;9.506;2023-08-17T09:09:45;102364.28;;;16.32;100.00
29315;BME280;16320;53.954;9.506;2023-08-17T09:12:49;102367.69;;;16.34;100.00
29315;BME280;16320;53.954;9.506;2023-08-17T09:15:54;102376.28;;;16.39;100.00
29315;BME280;16320;53.954;9.506;2023-08-17T09:18:58;102391.59;;;16.51;100.00
29315;BME280;16320;53.954;9.506;2023-08-17T09:22:04;102395.16;;;16.50;100.00
29315;BME280;16320;53.954;9.506;2023-08-17T09:25:12;102402.91;;;16.55;100.00
29315;BME280;16320;53.954;9.506;2023-08-17T09:28:26;102406.94;;;16.62;100.00
29315;BME280;16320;53.954;9.506;2023-08-17T09:31:31;102416.41;;;16.68;100.00
29315;BME280;16320;53.954;9.506;2023-08-17T09:34:36;102435.53;;;16.74;100.00
29315;BME280;16320;53.954;9.506;2023-08-17T09:37:41;102437.03;;;16.80;100.00
29315;BME280;16320;53.954;9.506;2023-08-17T09:40:47;102440.38;;;16.83;100.00
29315;BME280;16320;53.954;9.506;2023-08-17T09:43:53;102443.94;;;16.82;100.00
29315;BME280;16320;53.954;9.506;2023-08-17T09:46:58;102456.88;;;16.90;100.00
29315;BME280;16320;53.954;9.506;2023-08-17T09:50:06;102469.09;;;16.93;100.00
29315;BME280;16320;53.954;9.506;2023-08-17T09:53:18;102471.59;;;16.96;100.00
29315;BME280;16320;53.954;9.506;2023-08-17T09:56:23;102481.22;;;16.98;100.00
29315;BME280;16320;53.954;9.506;2023-08-17T09:59:28;102489.97;;;17.00;100.00
29315;BME280;16320;53.954;9.506;2023-08-17T10:02:33;102487.47;;;16.97;100.00
29315;BME280;16320;53.954;9.506;2023-08-17T10:05:41;102489.97;;;17.00;100.00
29315;BME280;16320;53.954;9.506;2023-08-17T10:08:48;102489.25;;;16.97;100.00
29315;BME280;16320;53.954;9.506;2023-08-17T10:11:57;102491.06;;;16.96;100.00
29315;BME280;16320;53.954;9.506;2023-08-17T10:15:11;102498.88;;;16.99;100.00
29315;BME280;16320;53.954;9.506;2023-08-17T10:18:31;102504.75;;;17.06;100.00
29315;BME280;16320;53.954;9.506;2023-08-17T10:21:46;102505.59;;;17.07;100.00
29315;BME280;16320;53.954;9.506;2023-08-17T10:24:54;102512.78;;;17.05;100.00
29315;BME280;16320;53.954;9.506;2023-08-17T10:28:00;102507.31;;;17.08;100.00
29315;BME280;16320;53.954;9.506;2023-08-17T10:31:08;102508.84;;;17.12;100.00
29315;BME280;16320;53.954;9.506;2023-08-17T10:34:15;102506.34;;;17.09;100.00
29315;BME280;16320;53.954;9.506;2023-08-17T10:37:21;102514.16;;;17.12;100.00
29315;BME280;16320;53.954;9.506;2023-08-17T10:40:34;102514.16;;;17.12;100.00
29315;BME280;16320;53.954;9.506;2023-08-17T10:43:58;102513.16;;;17.14;100.00
29315;BME280;16320;53.954;9.506;2023-08-17T10:47:23;102510.28;;;17.19;100.00
29315;BME280;16320;53.954;9.506;2023-08-17T10:50:28;102514.63;;;17.20;100.00
29315;BME280;16320;53.954;9.506;2023-08-17T10:53:37;102513.94;;;17.16;100.00
29315;BME280;16320;53.954;9.506;2023-08-17T10:56:46;102517.28;;;17.20;100.00
29315;BME280;16320;53.954;9.506;2023-08-17T11:00:21;102519.03;;;17.21;100.00
29315;BME280;16320;53.954;9.506;2023-08-17T11:03:31;102521.91;;;17.16;100.00
29315;BME280;16320;53.954;9.506;2023-08-17T11:06:38;102527.38;;;17.13;100.00
29315;BME280;16320;53.954;9.506;2023-08-17T11:09:43;102533.22;;;17.20;100.00
29315;BME280;16320;53.954;9.506;2023-08-17T11:12:48;102530.50;;;17.22;100.00
29315;BME280;16320;53.954;9.506;2023-08-17T11:15:58;102542.84;;;17.23;100.00
29315;BME280;16320;53.954;9.506;2023-08-17T11:19:08;102542.69;;;17.26;100.00
29315;BME280;16320;53.954;9.506;2023-08-17T11:22:16;102547.13;;;17.25;100.00
29315;BME280;16320;53.954;9.506;2023-08-17T11:25:29;102548.69;;;17.29;100.00
29315;BME280;16320;53.954;9.506;2023-08-17T11:28:36;102554.69;;;17.33;100.00
29315;BME280;16320;53.954;9.506;2023-08-17T11:31:45;102550.25;;;17.33;100.00
29315;BME280;16320;53.954;9.506;2023-08-17T11:34:54;102552.81;;;17.35;100.00
29315;BME280;16320;53.954;9.506;2023-08-17T11:38:03;102556.44;;;17.34;100.00
29315;BME280;16320;53.954;9.506;2023-08-17T11:41:12;102566.56;;;17.43;100.00
29315;BME280;16320;53.954;9.506;2023-08-17T11:44:20;102568.13;;;17.47;100.00
29315;BME280;16320;53.954;9.506;2023-08-17T11:47:28;102564.28;;;17.53;100.00
29315;BME280;16320;53.954;9.506;2023-08-17T11:50:36;102568.69;;;17.54;100.00
29315;BME280;16320;53.954;9.506;2023-08-17T11:53:43;102567.91;;;17.52;100.00
29315;BME280;16320;53.954;9.506;2023-08-17T11:56:52;102566.25;;;17.49;100.00
29315;BME280;16320;53.954;9.506;2023-08-17T11:59:57;102565.25;;;17.52;100.00
29315;BME280;16320;53.954;9.506;2023-08-17T12:03:03;102561.09;;;17.46;100.00
29315;BME280;16320;53.954;9.506;2023-08-17T12:06:09;102564.16;;;17.38;100.00
29315;BME280;16320;53.954;9.506;2023-08-17T12:09:14;102560.72;;;17.36;100.00
29315;BME280;16320;53.954;9.506;2023-08-17T12:12:22;102557.97;;;17.38;100.00
29315;BME280;16320;53.954;9.506;2023-08-17T12:15:35;102563.44;;;17.35;100.00
29315;BME280;16320;53.954;9.506;2023-08-17T12:18:48;102553.84;;;17.32;100.00
29315;BME280;16320;53.954;9.506;2023-08-17T12:21:52;102546.13;;;17.28;100.00
29315;BME280;16320;53.954;9.506;2023-08-17T12:24:57;102550.56;;;17.27;100.00
29315;BME280;16320;53.954;9.506;2023-08-17T12:28:02;102550.56;;;17.27;100.00
29315;BME280;16320;53.954;9.506;2023-08-17T12:31:06;102545.41;;;17.24;100.00
29315;BME280;16320;53.954;9.506;2023-08-17T12:34:12;102536.66;;;17.22;100.00
29315;BME280;16320;53.954;9.506;2023-08-17T12:37:20;102533.22;;;17.20;100.00
29315;BME280;16320;53.954;9.506;2023-08-17T12:40:25;102525.50;;;17.15;100.00
29315;BME280;16320;53.954;9.506;2023-08-17T12:43:29;102524.56;;;17.16;100.00
29315;BME280;16320;53.954;9.506;2023-08-17T12:46:34;102525.34;;;17.18;100.00
29315;BME280;16320;53.954;9.506;2023-08-17T12:49:39;102541.41;;;17.15;100.00
29315;BME280;16320;53.954;9.506;2023-08-17T12:52:43;102539.03;;;17.11;100.00
29315;BME280;16320;53.954;9.506;2023-08-17T12:55:50;102538.22;;;17.09;100.00
29315;BME280;16320;53.954;9.506;2023-08-17T12:58:59;102540.72;;;17.12;100.00
29315;BME280;16320;53.954;9.506;2023-08-17T13:02:06;102539.03;;;17.11;100.00
29315;BME280;16320;53.954;9.506;2023-08-17T13:05:10;102538.69;;;17.17;100.00
29315;BME280;16320;53.954;9.506;2023-08-17T13:08:15;102540.41;;;17.18;100.00
29315;BME280;16320;53.954;9.506;2023-08-17T13:11:19;102535.88;;;17.20;100.00
29315;BME280;16320;53.954;9.506;2023-08-17T13:14:25;102537.75;;;17.18;100.00
29315;BME280;16320;53.954;9.506;2023-08-17T13:17:30;102536.84;;;17.19;100.00
29315;BME280;16320;53.954;9.506;2023-08-17T13:20:34;102540.09;;;17.24;100.00
29315;BME280;16320;53.954;9.506;2023-08-17T13:23:39;102532.00;;;17.27;100.00
29315;BME280;16320;53.954;9.506;2023-08-17T13:26:44;102531.03;;;17.28;100.00
29315;BME280;16320;53.954;9.506;2023-08-17T13:29:49;102538.75;;;17.33;100.00
29315;BME280;16320;53.954;9.506;2023-08-17T13:32:53;102534.22;;;17.35;100.00
29315;BME280;16320;53.954;9.506;2023-08-17T13:35:58;102525.94;;;17.41;100.00
29315;BME280;16320;53.954;9.506;2023-08-17T13:39:03;102538.06;;;17.47;100.00
29315;BME280;16320;53.954;9.506;2023-08-17T13:42:08;102538.00;;;17.48;100.00
29315;BME280;16320;53.954;9.506;2023-08-17T13:45:12;102545.16;;;17.46;100.00
29315;BME280;16320;53.954;9.506;2023-08-17T13:48:16;102547.13;;;17.43;100.00
29315;BME280;16320;53.954;9.506;2023-08-17T13:51:23;102545.88;;;17.50;100.00
29315;BME280;16320;53.954;9.506;2023-08-17T13:54:27;102554.84;;;17.47;100.00
29315;BME280;16320;53.954;9.506;2023-08-17T13:57:32;102560.88;;;17.51;100.00
29315;BME280;16320;53.954;9.506;2023-08-17T14:00:36;102549.84;;;17.59;100.00
29315;BME280;16320;53.954;9.506;2023-08-17T14:03:41;102559.78;;;17.55;100.00
29315;BME280;16320;53.954;9.506;2023-08-17T14:06:47;102563.53;;;17.51;100.00
29315;BME280;16320;53.954;9.506;2023-08-17T14:09:52;102569.44;;;17.56;100.00
29315;BME280;16320;53.954;9.506;2023-08-17T14:13:12;102574.00;;;17.54;100.00
29315;BME280;16320;53.954;9.506;2023-08-17T14:16:16;102562.75;;;17.49;100.00
29315;BME280;16320;53.954;9.506;2023-08-17T14:19:21;102565.56;;;17.46;100.00
29315;BME280;16320;53.954;9.506;2023-08-17T14:22:25;102558.50;;;17.45;100.00
29315;BME280;16320;53.954;9.506;2023-08-17T14:25:30;102542.34;;;17.49;100.00
29315;BME280;16320;53.954;9.506;2023-08-17T14:28:35;102538.53;;;17.55;100.00
29315;BME280;16320;53.954;9.506;2023-08-17T14:31:40;102538.53;;;17.55;100.00
29315;BME280;16320;53.954;9.506;2023-08-17T14:34:44;102542.88;;;17.56;100.00
29315;BME280;16320;53.954;9.506;2023-08-17T14:37:48;102536.25;;;17.47;100.00
29315;BME280;16320;53.954;9.506;2023-08-17T14:40:53;102537.25;;;17.45;100.00
29315;BME280;16320;53.954;9.506;2023-08-17T14:43:59;102536.34;;;17.46;100.00
29315;BME280;16320;53.954;9.506;2023-08-17T14:47:06;102535.41;;;17.47;100.00
29315;BME280;16320;53.954;9.506;2023-08-17T14:50:10;102533.84;;;17.43;100.00
29315;BME280;16320;53.954;9.506;2023-08-17T14:53:15;102543.69;;;17.41;100.00
29315;BME280;16320;53.954;9.506;2023-08-17T14:56:19;102534.75;;;17.42;100.00
29315;BME280;16320;53.954;9.506;2023-08-17T14:59:24;102529.38;;;17.43;100.00
29315;BME280;16320;53.954;9.506;2023-08-17T15:02:28;102535.72;;;17.41;100.00
29315;BME280;16320;53.954;9.506;2023-08-17T15:05:34;102542.13;;;17.36;100.00
29315;BME280;16320;53.954;9.506;2023-08-17T15:08:40;102536.19;;;17.31;100.00
29315;BME280;16320;53.954;9.506;2023-08-17T15:11:44;102543.22;;;17.32;100.00
29315;BME280;16320;53.954;9.506;2023-08-17T15:14:49;102539.97;;;17.27;100.00
29315;BME280;16320;53.954;9.506;2023-08-17T15:17:53;102545.28;;;17.27;100.00
29315;BME280;16320;53.954;9.506;2023-08-17T15:20:58;102542.91;;;17.21;100.00
29315;BME280;16320;53.954;9.506;2023-08-17T15:24:02;102539.50;;;17.19;100.00
29315;BME280;16320;53.954;9.506;2023-08-17T15:27:07;102539.50;;;17.19;100.00
29315;BME280;16320;53.954;9.506;2023-08-17T15:30:12;102541.66;;;17.28;100.00
29315;BME280;16320;53.954;9.506;2023-08-17T15:33:16;102545.28;;;17.27;100.00
29315;BME280;16320;53.954;9.506;2023-08-17T15:36:21;102554.94;;;17.46;100.00
29315;BME280;16320;53.954;9.506;2023-08-17T15:39:30;102559.63;;;17.58;100.00
29315;BME280;16320;53.954;9.506;2023-08-17T15:42:35;102555.75;;;17.64;100.00
29315;BME280;16320;53.954;9.506;2023-08-17T15:45:39;102561.69;;;17.69;100.00
29315;BME280;16320;53.954;9.506;2023-08-17T15:48:44;102555.16;;;17.59;100.00
29315;BME280;16320;53.954;9.506;2023-08-17T15:51:49;102561.47;;;17.56;100.00
29315;BME280;16320;53.954;9.506;2023-08-17T15:54:53;102560.94;;;17.49;100.00
29315;BME280;16320;53.954;9.506;2023-08-17T15:57:58;102563.22;;;17.39;100.00
29315;BME280;16320;53.954;9.506;2023-08-17T16:01:03;102551.97;;;17.34;100.00
29315;BME280;16320;53.954;9.506;2023-08-17T16:04:08;102542.63;;;17.27;100.00